Time;durP1;ratioP1;P1;durP2;ratioP2;P2;SDS_P1;SDS_P2;PMS_P1;PMS_P2;Temp;Humidity;BMP_temperature;BMP_pressure;BME280_temperature;BME280_humidity;BME280_pressure;Samples;Min_cycle;Max_cycle;Signal;HPM_P1;HPM_P2
2023/03/24 00:01:49;;;;;;;;;;;;;;;30.46;22.00;97644.81;5051061;28;19967;-84
2023/03/24 00:04:16;;;;;;;;;;;;;;;30.46;21.90;97647.66;5054569;28;20423;-83
2023/03/24 00:06:42;;;;;;;;;;;;;;;30.69;21.92;97652.47;5055764;28;19920;-84
2023/03/24 00:09:08;;;;;;;;;;;;;;;30.75;22.39;97648.44;5054549;28;19925;-83
2023/03/24 00:11:34;;;;;;;;;;;;;;;30.88;21.86;97641.69;5053555;28;19921;-83
2023/03/24 00:14:01;;;;;;;;;;;;;;;30.65;22.05;97640.53;5044210;28;19928;-83
2023/03/24 00:16:28;;;;;;;;;;;;;;;30.56;22.09;97649.13;5053990;28;20380;-83
2023/03/24 00:18:54;;;;;;;;;;;;;;;30.45;22.48;97646.91;5046608;28;19928;-83
2023/03/24 00:21:23;;;;;;;;;;;;;;;30.38;22.25;97657.84;5053521;28;19936;-83
2023/03/24 00:23:50;;;;;;;;;;;;;;;30.29;22.30;97655.06;5052498;28;19928;-83
2023/03/24 00:26:16;;;;;;;;;;;;;;;30.34;22.24;97654.41;5054826;28;20332;-84
2023/03/24 00:28:44;;;;;;;;;;;;;;;30.23;22.70;97654.94;5051278;28;19921;-83
2023/03/24 00:31:10;;;;;;;;;;;;;;;30.20;22.23;97655.91;5055256;28;20042;-84
2023/03/24 00:33:36;;;;;;;;;;;;;;;30.08;22.03;97651.31;5045051;28;20019;-84
2023/03/24 00:36:04;;;;;;;;;;;;;;;30.02;22.59;97644.75;5049730;28;19928;-84
2023/03/24 00:38:33;;;;;;;;;;;;;;;30.03;22.64;97640.66;5054346;28;19929;-84
2023/03/24 00:40:59;;;;;;;;;;;;;;;30.11;22.92;97641.06;5057841;28;19921;-84
2023/03/24 00:43:27;;;;;;;;;;;;;;;30.30;22.10;97631.91;5049874;28;19921;-84
2023/03/24 00:46:00;;;;;;;;;;;;;;;30.16;22.81;97631.88;5050118;28;20393;-84
2023/03/24 00:48:27;;;;;;;;;;;;;;;30.05;22.43;97627.59;5045477;28;19921;-83
2023/03/24 00:50:53;;;;;;;;;;;;;;;29.91;23.23;97636.03;5053769;28;19921;-85
2023/03/24 00:53:22;;;;;;;;;;;;;;;30.06;22.64;97628.34;5052394;28;20058;-84
2023/03/24 00:55:48;;;;;;;;;;;;;;;29.92;23.23;97623.47;5055372;28;19921;-84
2023/03/24 00:58:17;;;;;;;;;;;;;;;29.69;23.66;97627.84;5048959;28;20296;-84
2023/03/24 01:00:44;;;;;;;;;;;;;;;29.56;22.71;97629.38;5051920;28;20000;-84
2023/03/24 01:03:10;;;;;;;;;;;;;;;29.51;22.47;97630.03;5053222;28;19921;-84
2023/03/24 01:05:36;;;;;;;;;;;;;;;29.64;22.62;97622.09;5049427;28;19929;-84
2023/03/24 01:08:03;;;;;;;;;;;;;;;29.49;21.75;97624.06;5060661;28;19924;-84
2023/03/24 01:10:30;;;;;;;;;;;;;;;29.49;23.10;97619.19;5052466;28;20393;-83
2023/03/24 01:12:57;;;;;;;;;;;;;;;29.60;22.79;97612.97;5065795;28;20265;-83
2023/03/24 01:15:25;;;;;;;;;;;;;;;29.47;22.81;97609.63;5054455;28;19925;-83
2023/03/24 01:17:52;;;;;;;;;;;;;;;29.36;22.76;97610.94;5055076;28;20007;-83
2023/03/24 01:20:18;;;;;;;;;;;;;;;29.50;23.56;97611.50;5054006;28;19921;-83
2023/03/24 01:22:45;;;;;;;;;;;;;;;29.86;23.27;97602.75;5054294;28;19925;-83
2023/03/24 01:25:15;;;;;;;;;;;;;;;30.00;22.94;97599.16;5055661;28;19932;-83
2023/03/24 01:27:45;;;;;;;;;;;;;;;30.07;23.44;97596.72;5053395;28;20011;-83
2023/03/24 01:30:12;;;;;;;;;;;;;;;30.20;22.80;97593.59;5051494;28;19921;-83
2023/03/24 01:32:39;;;;;;;;;;;;;;;30.08;23.46;97595.44;5046742;28;20039;-83
2023/03/24 01:35:05;;;;;;;;;;;;;;;30.17;23.73;97597.44;5051672;28;19966;-83
2023/03/24 01:37:31;;;;;;;;;;;;;;;30.25;23.50;97598.59;5051755;28;20015;-82
2023/03/24 01:39:57;;;;;;;;;;;;;;;30.18;23.72;97598.97;5052563;28;19921;-82
2023/03/24 01:42:25;;;;;;;;;;;;;;;30.12;23.39;97597.31;5066934;28;19933;-83
2023/03/24 01:44:53;;;;;;;;;;;;;;;30.03;22.60;97590.50;5051466;28;19940;-84
2023/03/24 01:47:19;;;;;;;;;;;;;;;29.82;22.59;97590.84;5052173;28;19932;-84
2023/03/24 01:49:48;;;;;;;;;;;;;;;29.78;23.74;97588.19;5050382;28;19917;-83
2023/03/24 01:52:20;;;;;;;;;;;;;;;29.91;23.81;97585.09;5051542;28;19921;-84
2023/03/24 01:54:53;;;;;;;;;;;;;;;30.07;22.90;97591.06;5050605;28;19917;-83
2023/03/24 01:57:28;;;;;;;;;;;;;;;30.08;23.54;97597.53;5050275;28;20348;-83
2023/03/24 01:59:56;;;;;;;;;;;;;;;30.25;22.71;97595.75;5051703;28;20388;-83
2023/03/24 02:02:22;;;;;;;;;;;;;;;30.29;22.79;97587.06;5050855;28;20059;-83
2023/03/24 02:04:52;;;;;;;;;;;;;;;30.21;22.80;97586.69;5050136;28;20099;-83
2023/03/24 02:07:25;;;;;;;;;;;;;;;30.17;23.69;97580.44;5052707;28;19967;-83
2023/03/24 02:09:51;;;;;;;;;;;;;;;30.12;23.74;97581.13;5043894;28;19967;-83
2023/03/24 02:12:17;;;;;;;;;;;;;;;30.07;23.14;97578.97;5050656;28;20016;-83
2023/03/24 02:14:43;;;;;;;;;;;;;;;29.97;23.30;97574.63;5050808;28;20007;-84
2023/03/24 02:17:17;;;;;;;;;;;;;;;29.91;22.61;97576.59;5053446;28;20023;-83
2023/03/24 02:19:46;;;;;;;;;;;;;;;30.04;23.83;97575.03;5053560;28;19921;-84
2023/03/24 02:22:21;;;;;;;;;;;;;;;30.18;23.36;97567.81;5051233;28;19975;-83
2023/03/24 02:25:16;;;;;;;;;;;;;;;30.34;22.89;97575.84;5050172;28;19921;-83
2023/03/24 02:28:03;;;;;;;;;;;;;;;30.49;22.87;97573.03;5064806;28;20555;-83
2023/03/24 02:30:29;;;;;;;;;;;;;;;30.47;22.33;97576.34;5048185;28;19932;-83
2023/03/24 02:33:13;;;;;;;;;;;;;;;30.34;23.40;97570.19;5048955;28;19921;-83
2023/03/24 02:35:58;;;;;;;;;;;;;;;30.35;23.81;97568.94;5064624;28;20331;-83
2023/03/24 02:38:42;;;;;;;;;;;;;;;30.49;22.56;97570.97;5055013;28;19936;-83
2023/03/24 02:41:19;;;;;;;;;;;;;;;30.49;22.24;97567.34;5051448;28;19944;-83
2023/03/24 02:44:01;;;;;;;;;;;;;;;30.39;22.40;97560.22;5051543;28;19975;-84
2023/03/24 02:46:35;;;;;;;;;;;;;;;30.22;22.92;97557.09;5049829;28;19984;-83
2023/03/24 02:49:01;;;;;;;;;;;;;;;30.23;22.43;97561.47;5050195;28;19921;-83
2023/03/24 02:51:27;;;;;;;;;;;;;;;29.97;23.14;97560.50;5051755;28;19921;-83
2023/03/24 02:54:14;;;;;;;;;;;;;;;30.00;23.62;97556.69;5050865;28;19917;-83
2023/03/24 02:56:52;;;;;;;;;;;;;;;30.01;23.00;97550.53;5047654;28;19967;-83
2023/03/24 02:59:22;;;;;;;;;;;;;;;29.96;23.19;97556.91;5051161;28;19946;-83
2023/03/24 03:01:57;;;;;;;;;;;;;;;30.02;22.91;97559.81;5049452;28;20367;-83
2023/03/24 03:04:32;;;;;;;;;;;;;;;30.02;22.64;97560.59;5049135;28;20442;-83
2023/03/24 03:07:01;;;;;;;;;;;;;;;29.98;22.71;97545.06;5051578;28;19925;-83
2023/03/24 03:09:27;;;;;;;;;;;;;;;30.08;23.61;97538.06;5052890;28;19921;-83
2023/03/24 03:11:56;;;;;;;;;;;;;;;30.16;22.89;97544.88;5052924;28;19921;-83
2023/03/24 03:14:36;;;;;;;;;;;;;;;30.20;22.96;97527.72;5047451;28;20602;-83
2023/03/24 03:17:06;;;;;;;;;;;;;;;30.18;22.85;97531.00;5048084;28;19925;-83
2023/03/24 03:19:51;;;;;;;;;;;;;;;30.08;22.69;97530.31;5052590;28;19921;-83
2023/03/24 03:22:21;;;;;;;;;;;;;;;29.97;22.76;97530.13;5049639;28;19963;-83
2023/03/24 03:24:49;;;;;;;;;;;;;;;29.94;23.68;97533.94;5051745;28;19975;-83
2023/03/24 03:27:21;;;;;;;;;;;;;;;30.13;22.66;97531.69;5049136;28;19917;-83
2023/03/24 03:29:53;;;;;;;;;;;;;;;30.32;23.25;97526.59;5044916;28;19953;-83
2023/03/24 03:32:23;;;;;;;;;;;;;;;30.47;23.16;97524.56;5047104;28;19921;-83
2023/03/24 03:34:55;;;;;;;;;;;;;;;30.47;23.11;97536.69;5053548;28;19925;-83
2023/03/24 03:37:21;;;;;;;;;;;;;;;30.31;22.62;97528.66;5048039;28;19950;-83
2023/03/24 03:39:56;;;;;;;;;;;;;;;30.06;22.99;97532.06;5045988;28;19964;-83
2023/03/24 03:42:22;;;;;;;;;;;;;;;29.94;23.09;97527.50;5052142;28;20388;-82
2023/03/24 03:44:49;;;;;;;;;;;;;;;29.96;22.97;97527.78;5048346;28;19924;-83
2023/03/24 03:47:15;;;;;;;;;;;;;;;29.94;22.82;97522.59;5049951;28;19927;-82
2023/03/24 03:49:42;;;;;;;;;;;;;;;29.94;23.85;97519.78;5051080;28;20414;-82
2023/03/24 03:52:08;;;;;;;;;;;;;;;30.13;23.64;97520.34;5066763;28;19916;-83
2023/03/24 03:54:36;;;;;;;;;;;;;;;30.18;24.13;97511.19;5041135;28;20022;-83
2023/03/24 03:57:02;;;;;;;;;;;;;;;30.06;23.84;97515.09;5049845;28;19977;-83
2023/03/24 03:59:32;;;;;;;;;;;;;;;30.06;23.48;97506.59;5051711;28;19920;-83
2023/03/24 04:02:03;;;;;;;;;;;;;;;30.08;22.51;97509.75;5045381;28;19982;-83
2023/03/24 04:04:32;;;;;;;;;;;;;;;30.12;22.40;97510.31;5049731;28;19932;-83
2023/03/24 04:07:12;;;;;;;;;;;;;;;30.03;22.60;97505.53;5052147;28;19916;-83
2023/03/24 04:09:57;;;;;;;;;;;;;;;30.13;23.12;97508.28;5057567;28;19936;-83
2023/03/24 04:12:43;;;;;;;;;;;;;;;30.34;23.39;97513.53;5044315;28;19928;-82
2023/03/24 04:15:12;;;;;;;;;;;;;;;30.36;23.12;97513.06;5052454;28;19925;-83
2023/03/24 04:17:56;;;;;;;;;;;;;;;30.09;22.75;97509.25;5050822;28;20388;-83
2023/03/24 04:20:37;;;;;;;;;;;;;;;30.15;23.46;97503.69;5069967;28;20339;-83
2023/03/24 04:23:25;;;;;;;;;;;;;;;29.99;23.58;97507.00;5043880;28;19928;-82
2023/03/24 04:25:57;;;;;;;;;;;;;;;29.67;23.16;97511.53;5044430;28;19935;-83
2023/03/24 04:28:29;;;;;;;;;;;;;;;29.54;23.74;97513.88;5039713;28;19943;-83
2023/03/24 04:30:55;;;;;;;;;;;;;;;29.66;22.91;97510.00;5050942;28;20287;-83
2023/03/24 04:33:40;;;;;;;;;;;;;;;29.48;24.08;97512.97;5050220;28;20007;-83
2023/03/24 04:36:17;;;;;;;;;;;;;;;29.50;23.45;97515.31;5050246;28;20016;-83
2023/03/24 04:38:47;;;;;;;;;;;;;;;29.42;23.44;97518.53;5047792;28;19921;-83
2023/03/24 04:41:16;;;;;;;;;;;;;;;29.42;23.86;97524.19;5051936;28;19924;-83
2023/03/24 04:43:43;;;;;;;;;;;;;;;29.28;24.46;97522.09;5049633;28;19920;-82
2023/03/24 04:46:09;;;;;;;;;;;;;;;29.41;24.09;97525.44;5051478;28;20369;-83
2023/03/24 04:48:35;;;;;;;;;;;;;;;29.49;24.54;97517.38;5048618;28;19952;-83
2023/03/24 04:51:02;;;;;;;;;;;;;;;29.73;23.73;97518.09;5055002;28;19928;-83
2023/03/24 04:53:29;;;;;;;;;;;;;;;29.91;22.70;97514.31;5054258;28;19975;-83
2023/03/24 04:56:12;;;;;;;;;;;;;;;29.53;23.72;97525.66;5041711;28;19963;-83
2023/03/24 04:58:38;;;;;;;;;;;;;;;29.46;23.56;97520.38;5054803;28;19920;-83
2023/03/24 05:01:05;;;;;;;;;;;;;;;29.55;23.96;97528.78;5055823;28;19924;-82
2023/03/24 05:03:31;;;;;;;;;;;;;;;29.62;24.08;97525.56;5052878;28;19928;-83
2023/03/24 05:05:58;;;;;;;;;;;;;;;29.80;24.08;97533.94;5050300;28;19920;-84
2023/03/24 05:08:24;;;;;;;;;;;;;;;29.89;23.68;97528.19;5055774;28;19921;-83
2023/03/24 05:10:50;;;;;;;;;;;;;;;29.96;23.40;97527.78;5058552;28;19987;-84
2023/03/24 05:13:16;;;;;;;;;;;;;;;29.90;23.73;97535.38;5055470;28;20035;-84
2023/03/24 05:15:42;;;;;;;;;;;;;;;29.86;24.64;97537.63;5055230;28;19925;-83
2023/03/24 05:18:08;;;;;;;;;;;;;;;29.92;23.92;97536.47;5053927;28;19982;-83
2023/03/24 05:20:34;;;;;;;;;;;;;;;29.85;25.00;97534.03;5050732;28;19932;-84
2023/03/24 05:23:00;;;;;;;;;;;;;;;29.99;24.04;97532.50;5043880;28;20276;-83
2023/03/24 05:25:26;;;;;;;;;;;;;;;29.98;24.51;97539.41;5051599;28;19921;-84
2023/03/24 05:27:53;;;;;;;;;;;;;;;29.92;24.73;97536.47;5048492;28;19928;-83
2023/03/24 05:30:19;;;;;;;;;;;;;;;29.84;24.56;97543.81;5050981;28;19974;-84
2023/03/24 05:32:45;;;;;;;;;;;;;;;29.86;24.51;97540.47;5047943;28;20028;-84
2023/03/24 05:35:11;;;;;;;;;;;;;;;29.75;23.90;97540.25;5044942;28;19944;-83
2023/03/24 05:37:37;;;;;;;;;;;;;;;29.69;24.00;97550.66;5050041;28;19971;-84
2023/03/24 05:40:03;;;;;;;;;;;;;;;29.71;25.15;97543.25;5048579;28;20585;-84
2023/03/24 05:42:29;;;;;;;;;;;;;;;29.96;24.52;97545.56;5049814;28;20011;-83
2023/03/24 05:44:55;;;;;;;;;;;;;;;30.03;24.92;97550.84;5045852;28;19921;-83
2023/03/24 05:47:21;;;;;;;;;;;;;;;30.06;24.57;97544.19;5043028;28;20038;-83
2023/03/24 05:49:47;;;;;;;;;;;;;;;30.04;24.48;97545.94;5048030;28;20265;-84
2023/03/24 05:52:16;;;;;;;;;;;;;;;30.02;23.90;97542.81;5047371;28;20380;-84
2023/03/24 05:54:42;;;;;;;;;;;;;;;29.77;24.74;97544.19;5047363;28;19952;-85
2023/03/24 05:57:13;;;;;;;;;;;;;;;29.91;25.06;97542.63;5043768;28;19935;-83
2023/03/24 05:59:39;;;;;;;;;;;;;;;29.94;24.77;97550.91;5042802;28;19928;-83
2023/03/24 06:02:05;;;;;;;;;;;;;;;29.92;24.73;97552.69;5049541;28;19970;-82
2023/03/24 06:04:31;;;;;;;;;;;;;;;29.89;25.20;97551.63;5052853;28;20361;-82
2023/03/24 06:07:01;;;;;;;;;;;;;;;29.67;24.68;97556.03;5053673;28;20431;-82
2023/03/24 06:09:31;;;;;;;;;;;;;;;29.32;25.39;97556.63;5054410;28;19971;-82
2023/03/24 06:11:58;;;;;;;;;;;;;;;29.34;25.55;97568.22;5054676;28;19916;-82
2023/03/24 06:14:24;;;;;;;;;;;;;;;29.48;26.31;97555.38;5052082;28;19921;-82
2023/03/24 06:16:50;;;;;;;;;;;;;;;29.76;25.23;97561.63;5053061;28;19964;-82
2023/03/24 06:19:17;;;;;;;;;;;;;;;29.78;25.86;97559.13;5041459;28;19916;-82
2023/03/24 06:21:49;;;;;;;;;;;;;;;29.80;26.12;97559.41;5041324;28;19923;-82
2023/03/24 06:24:19;;;;;;;;;;;;;;;29.67;25.71;97565.28;5053991;28;19959;-82
2023/03/24 06:26:48;;;;;;;;;;;;;;;29.48;26.56;97574.44;5053592;28;19940;-82
2023/03/24 06:29:17;;;;;;;;;;;;;;;29.47;27.64;97567.19;5053263;28;19916;-82
2023/03/24 06:31:44;;;;;;;;;;;;;;;29.71;26.92;97571.53;5052271;28;20372;-82
2023/03/24 06:34:10;;;;;;;;;;;;;;;29.77;26.82;97568.88;5054478;28;19920;-82
2023/03/24 06:36:36;;;;;;;;;;;;;;;29.86;26.91;97568.78;5054738;28;19916;-82
2023/03/24 06:39:04;;;;;;;;;;;;;;;29.81;26.71;97569.44;5054177;28;19917;-82
2023/03/24 06:41:31;;;;;;;;;;;;;;;29.54;27.32;97566.84;5051908;28;19921;-82
2023/03/24 06:43:57;;;;;;;;;;;;;;;29.47;28.38;97564.38;5053911;28;19920;-82
2023/03/24 06:46:23;;;;;;;;;;;;;;;29.48;28.45;97563.13;5055018;28;19924;-84
2023/03/24 06:48:49;;;;;;;;;;;;;;;29.40;28.42;97568.34;5045083;28;20035;-82
2023/03/24 06:51:16;;;;;;;;;;;;;;;29.17;28.88;97569.13;5052170;28;20046;-82
2023/03/24 06:53:44;;;;;;;;;;;;;;;29.24;29.44;97563.88;5052760;28;20007;-82
2023/03/24 06:56:15;;;;;;;;;;;;;;;29.23;29.42;97561.56;5053006;28;19921;-82
2023/03/24 06:58:41;;;;;;;;;;;;;;;29.24;29.61;97563.88;5054260;28;20454;-82
2023/03/24 07:01:07;;;;;;;;;;;;;;;29.35;30.11;97555.66;5053795;28;19937;-81
2023/03/24 07:03:34;;;;;;;;;;;;;;;29.48;28.79;97549.72;5052651;28;20008;-82
2023/03/24 07:06:00;;;;;;;;;;;;;;;29.19;29.69;97550.44;5053469;28;20316;-82
2023/03/24 07:08:26;;;;;;;;;;;;;;;29.20;29.48;97551.19;5037409;28;20015;-82
2023/03/24 07:10:52;;;;;;;;;;;;;;;29.32;28.67;97544.53;5033248;28;19925;-82
2023/03/24 07:13:18;;;;;;;;;;;;;;;29.51;29.12;97554.44;5047578;28;20444;-82
2023/03/24 07:15:44;;;;;;;;;;;;;;;29.64;28.74;97549.28;5053747;28;20372;-82
2023/03/24 07:18:12;;;;;;;;;;;;;;;29.64;28.82;97552.09;5052789;28;19944;-82
2023/03/24 07:20:38;;;;;;;;;;;;;;;29.81;29.02;97543.97;5053643;28;19917;-82
2023/03/24 07:23:04;;;;;;;;;;;;;;;29.99;28.47;97549.47;5073717;28;19999;-82
2023/03/24 07:25:31;;;;;;;;;;;;;;;30.23;28.94;97543.69;5073495;28;20363;-82
2023/03/24 07:27:57;;;;;;;;;;;;;;;30.47;28.15;97547.22;5069780;28;20683;-82
2023/03/24 07:30:23;;;;;;;;;;;;;;;30.52;28.98;97549.38;5052529;28;20392;-82
2023/03/24 07:32:50;;;;;;;;;;;;;;;30.52;28.30;97550.16;5052907;28;20058;-82
2023/03/24 07:35:16;;;;;;;;;;;;;;;30.56;28.48;97547.13;5053231;28;19912;-82
2023/03/24 07:37:43;;;;;;;;;;;;;;;30.51;28.05;97544.97;5053254;28;20011;-82
2023/03/24 07:40:16;;;;;;;;;;;;;;;30.45;27.80;97539.25;5053353;28;19929;-82
2023/03/24 07:42:42;;;;;;;;;;;;;;;30.72;27.63;97532.41;5053412;28;19916;-82
2023/03/24 07:45:10;;;;;;;;;;;;;;;30.49;28.66;97531.31;5053227;28;19963;-83
2023/03/24 07:47:37;;;;;;;;;;;;;;;30.70;27.54;97529.31;5051842;28;19968;-82
2023/03/24 07:50:09;;;;;;;;;;;;;;;30.83;27.97;97518.41;5052116;28;19936;-82
2023/03/24 07:52:39;;;;;;;;;;;;;;;30.76;27.55;97518.81;5053229;28;19943;-82
2023/03/24 07:55:07;;;;;;;;;;;;;;;30.68;27.97;97518.47;5053199;28;19917;-82
2023/03/24 07:57:36;;;;;;;;;;;;;;;30.67;26.44;97514.06;5053619;28;19960;-82
2023/03/24 08:00:16;;;;;;;;;;;;;;;31.03;27.30;97514.84;5053519;28;19924;-82
2023/03/24 08:02:44;;;;;;;;;;;;;;;31.25;26.39;97515.91;5051555;28;20343;-83
2023/03/24 08:05:12;;;;;;;;;;;;;;;30.99;26.34;97505.78;5052446;28;19943;-83
2023/03/24 08:07:42;;;;;;;;;;;;;;;31.50;26.59;97493.81;5051848;28;19917;-82
2023/03/24 08:10:12;;;;;;;;;;;;;;;31.44;27.38;97492.97;5051036;28;19921;-83
2023/03/24 08:12:38;;;;;;;;;;;;;;;31.62;27.21;97492.66;5051743;28;19921;-83
2023/03/24 08:15:06;;;;;;;;;;;;;;;31.71;26.09;97487.59;5052618;28;20011;-83
2023/03/24 08:17:32;;;;;;;;;;;;;;;31.96;27.58;97480.34;5052958;28;19925;-83
2023/03/24 08:19:58;;;;;;;;;;;;;;;31.84;26.73;97478.69;5052911;28;19920;-83
2023/03/24 08:22:26;;;;;;;;;;;;;;;32.16;26.06;97471.75;5052824;28;19917;-83
2023/03/24 08:24:52;;;;;;;;;;;;;;;32.39;25.39;97469.88;5056772;28;20368;-83
2023/03/24 08:27:18;;;;;;;;;;;;;;;32.67;25.46;97463.13;5054363;28;19927;-83
2023/03/24 08:29:44;;;;;;;;;;;;;;;32.98;25.78;97461.50;5056843;28;19921;-83
2023/03/24 08:32:10;;;;;;;;;;;;;;;33.14;25.60;97452.28;5056669;28;19925;-83
2023/03/24 08:34:36;;;;;;;;;;;;;;;33.01;25.02;97455.59;5066724;28;20418;-83
2023/03/24 08:37:02;;;;;;;;;;;;;;;33.03;25.24;97435.16;5072681;28;19917;-83
2023/03/24 08:39:31;;;;;;;;;;;;;;;33.12;23.65;97438.56;5056408;28;19963;-83
2023/03/24 08:41:57;;;;;;;;;;;;;;;32.74;23.62;97430.59;5056081;28;20371;-83
2023/03/24 08:44:23;;;;;;;;;;;;;;;32.40;24.61;97428.81;5056290;28;20019;-83
2023/03/24 08:46:49;;;;;;;;;;;;;;;32.64;25.12;97421.50;5051297;28;19963;-83
2023/03/24 08:49:17;;;;;;;;;;;;;;;32.81;24.34;97423.66;5036101;28;20452;-83
2023/03/24 08:51:43;;;;;;;;;;;;;;;32.83;25.53;97418.22;5045572;28;19927;-83
2023/03/24 08:54:11;;;;;;;;;;;;;;;32.87;25.47;97411.00;5056143;28;19921;-83
2023/03/24 08:56:38;;;;;;;;;;;;;;;32.91;24.97;97422.91;5054630;28;19985;-83
2023/03/24 08:59:04;;;;;;;;;;;;;;;33.31;24.97;97416.91;5056249;28;19921;-83
2023/03/24 09:01:32;;;;;;;;;;;;;;;33.35;24.96;97411.72;5055393;28;20003;-83
2023/03/24 09:03:58;;;;;;;;;;;;;;;33.57;26.34;97415.94;5056117;28;19924;-83
2023/03/24 09:06:26;;;;;;;;;;;;;;;33.66;23.90;97404.31;5055634;28;20016;-83
2023/03/24 09:08:52;;;;;;;;;;;;;;;33.34;22.58;97403.72;5055966;28;19920;-83
2023/03/24 09:11:20;;;;;;;;;;;;;;;33.14;23.58;97413.22;5055150;28;19928;-83
2023/03/24 09:13:46;;;;;;;;;;;;;;;33.23;24.97;97404.47;5056128;28;20003;-83
2023/03/24 09:16:13;;;;;;;;;;;;;;;33.51;25.90;97398.06;5055818;28;19968;-83
2023/03/24 09:18:39;;;;;;;;;;;;;;;34.03;25.50;97396.31;5055703;28;20426;-83
2023/03/24 09:21:06;;;;;;;;;;;;;;;34.29;23.96;97391.09;5055566;28;19917;-83
2023/03/24 09:23:32;;;;;;;;;;;;;;;34.47;23.97;97390.56;5055649;28;19916;-84
2023/03/24 09:25:59;;;;;;;;;;;;;;;34.59;22.64;97380.69;5055051;28;19920;-83
2023/03/24 09:28:25;;;;;;;;;;;;;;;34.59;24.39;97374.22;5055159;28;19921;-83
2023/03/24 09:30:55;;;;;;;;;;;;;;;34.78;24.15;97363.00;5055813;28;19916;-83
2023/03/24 09:33:22;;;;;;;;;;;;;;;34.99;23.22;97369.91;5055452;28;19921;-83
2023/03/24 09:35:55;;;;;;;;;;;;;;;34.99;23.62;97361.34;5055435;28;19924;-83
2023/03/24 09:38:21;;;;;;;;;;;;;;;34.71;23.01;97358.63;5055555;28;19928;-83
2023/03/24 09:40:50;;;;;;;;;;;;;;;34.61;22.36;97358.13;5054917;28;19917;-83
2023/03/24 09:43:34;;;;;;;;;;;;;;;34.38;23.62;97359.47;5055378;28;19921;-84
2023/03/24 09:46:02;;;;;;;;;;;;;;;34.84;22.67;97363.78;5044869;28;19921;-84
2023/03/24 09:48:41;;;;;;;;;;;;;;;35.29;23.22;97350.84;5046749;28;19932;-84
2023/03/24 09:51:10;;;;;;;;;;;;;;;35.41;22.86;97349.47;5045901;28;19929;-83
2023/03/24 09:53:42;;;;;;;;;;;;;;;35.35;22.60;97334.47;5055197;28;20011;-83
2023/03/24 09:56:11;;;;;;;;;;;;;;;35.50;22.50;97334.09;5052886;28;19924;-83
2023/03/24 09:58:40;;;;;;;;;;;;;;;35.55;21.46;97334.06;5054612;28;20015;-84
2023/03/24 10:01:14;;;;;;;;;;;;;;;35.80;22.56;97329.22;5056814;28;20039;-84
2023/03/24 10:03:41;;;;;;;;;;;;;;;35.76;22.92;97320.13;5055834;28;20269;-84
2023/03/24 10:06:09;;;;;;;;;;;;;;;35.62;23.17;97322.06;5054491;28;19917;-83
2023/03/24 10:08:36;;;;;;;;;;;;;;;35.68;21.04;97324.91;5054168;28;20395;-84
2023/03/24 10:11:02;;;;;;;;;;;;;;;35.46;21.82;97308.66;5052666;28;20440;-84
2023/03/24 10:13:46;;;;;;;;;;;;;;;35.54;22.33;97318.25;5054871;28;19947;-84
2023/03/24 10:16:17;;;;;;;;;;;;;;;35.74;22.09;97312.09;5055053;28;19921;-84
2023/03/24 10:18:57;;;;;;;;;;;;;;;35.85;21.44;97309.13;5054248;28;19971;-84
2023/03/24 10:21:25;;;;;;;;;;;;;;;35.90;21.57;97299.75;5054245;28;19917;-84
2023/03/24 10:23:54;;;;;;;;;;;;;;;35.87;19.86;97297.94;5054529;28;19917;-84
2023/03/24 10:26:36;;;;;;;;;;;;;;;35.60;22.42;97295.34;5058125;28;20403;-83
2023/03/24 10:29:20;;;;;;;;;;;;;;;35.73;21.73;97289.78;5054493;28;19923;-84
2023/03/24 10:32:07;;;;;;;;;;;;;;;35.69;21.93;97287.22;5054822;28;20029;-84
2023/03/24 10:34:33;;;;;;;;;;;;;;;35.74;21.69;97274.97;5053864;28;19924;-84
2023/03/24 10:37:01;;;;;;;;;;;;;;;35.90;20.95;97271.16;5050820;28;19924;-84
2023/03/24 10:39:28;;;;;;;;;;;;;;;36.19;21.75;97278.19;5053069;28;19921;-84
2023/03/24 10:41:56;;;;;;;;;;;;;;;36.32;19.65;97280.34;5065529;28;19928;-84
2023/03/24 10:44:22;;;;;;;;;;;;;;;36.28;21.86;97274.19;5053322;28;19921;-84
2023/03/24 10:46:51;;;;;;;;;;;;;;;36.41;20.32;97275.03;5054112;28;19921;-84
2023/03/24 10:49:18;;;;;;;;;;;;;;;36.64;21.08;97275.59;5053973;28;19974;-84
2023/03/24 10:51:49;;;;;;;;;;;;;;;36.67;21.95;97275.28;5053871;28;19923;-84
2023/03/24 10:54:21;;;;;;;;;;;;;;;36.75;20.81;97278.31;5053953;28;19935;-84
2023/03/24 10:56:49;;;;;;;;;;;;;;;36.44;18.25;97273.19;5053542;28;20335;-84
2023/03/24 10:59:15;;;;;;;;;;;;;;;36.41;18.96;97268.56;5053680;28;19921;-84
2023/03/24 11:01:41;;;;;;;;;;;;;;;36.38;18.99;97266.78;5053960;28;20395;-84
2023/03/24 11:04:12;;;;;;;;;;;;;;;36.21;19.02;97257.63;5053739;28;19971;-84
2023/03/24 11:06:51;;;;;;;;;;;;;;;35.72;19.08;97260.44;5053765;28;19963;-84
2023/03/24 11:09:19;;;;;;;;;;;;;;;35.62;18.84;97267.03;5053928;28;19921;-84
2023/03/24 11:11:45;;;;;;;;;;;;;;;35.09;21.99;97266.38;5052995;28;20400;-84
2023/03/24 11:14:32;;;;;;;;;;;;;;;35.29;18.90;97262.34;5053421;28;19921;-86
2023/03/24 11:17:08;;;;;;;;;;;;;;;35.71;20.42;97253.16;5044917;28;20011;-84
2023/03/24 11:19:35;;;;;;;;;;;;;;;35.54;19.30;97254.66;5052895;28;19924;-84
2023/03/24 11:22:03;;;;;;;;;;;;;;;35.74;19.17;97252.13;5052089;28;20277;-84
2023/03/24 11:24:34;;;;;;;;;;;;;;;35.99;19.66;97250.84;5053522;28;20012;-84
2023/03/24 11:27:01;;;;;;;;;;;;;;;36.05;20.12;97257.28;5053664;28;19924;-84
2023/03/24 11:29:29;;;;;;;;;;;;;;;36.53;18.63;97250.75;5053408;28;20023;-84
2023/03/24 11:31:57;;;;;;;;;;;;;;;35.92;19.35;97251.41;5052199;28;19917;-85
2023/03/24 11:34:37;;;;;;;;;;;;;;;35.89;19.74;97251.72;5051430;28;19952;-84
2023/03/24 11:37:23;;;;;;;;;;;;;;;35.61;18.47;97239.78;5047494;28;20332;-85
2023/03/24 11:40:14;;;;;;;;;;;;;;;35.87;19.83;97243.66;5052828;28;20387;-84
2023/03/24 11:42:42;;;;;;;;;;;;;;;35.53;19.70;97230.25;5053434;28;19924;-84
2023/03/24 11:45:26;;;;;;;;;;;;;;;35.24;18.78;97235.38;5052786;28;20283;-86
2023/03/24 11:47:55;;;;;;;;;;;;;;;35.14;18.94;97227.69;5053674;28;19916;-84
2023/03/24 11:50:35;;;;;;;;;;;;;;;35.26;20.04;97221.38;5052871;28;19921;-85
2023/03/24 11:53:14;;;;;;;;;;;;;;;35.43;19.37;97224.84;5052624;28;20282;-85
2023/03/24 11:55:53;;;;;;;;;;;;;;;35.68;18.73;97214.28;5053397;28;19975;-85
2023/03/24 11:58:38;;;;;;;;;;;;;;;35.43;19.14;97209.78;5065170;28;19921;-85
2023/03/24 12:01:06;;;;;;;;;;;;;;;34.55;21.20;97216.88;5041174;28;19943;-85
2023/03/24 12:03:59;;;;;;;;;;;;;;;35.14;20.17;97211.34;5057523;28;19916;-85
2023/03/24 12:06:44;;;;;;;;;;;;;;;35.37;19.25;97204.16;5055072;28;20024;-85
2023/03/24 12:09:12;;;;;;;;;;;;;;;35.60;20.82;97212.53;5057346;28;19921;-84
2023/03/24 12:11:50;;;;;;;;;;;;;;;35.80;21.08;97209.97;5081193;28;20426;-85
2023/03/24 12:14:35;;;;;;;;;;;;;;;35.84;19.67;97204.75;5046203;28;20008;-84
2023/03/24 12:17:07;;;;;;;;;;;;;;;35.98;20.65;97197.09;5036847;28;19926;-85
2023/03/24 12:19:43;;;;;;;;;;;;;;;36.02;20.99;97200.41;5053133;28;20331;-84
2023/03/24 12:22:23;;;;;;;;;;;;;;;36.31;19.01;97193.03;5056996;28;19921;-84
2023/03/24 12:25:08;;;;;;;;;;;;;;;36.45;19.74;97194.72;5056792;28;20327;-84
2023/03/24 12:27:34;;;;;;;;;;;;;;;36.50;18.87;97179.56;5056367;28;19921;-84
2023/03/24 12:30:14;;;;;;;;;;;;;;;36.14;19.68;97181.03;5055871;28;19946;-84
2023/03/24 12:32:52;;;;;;;;;;;;;;;35.96;18.14;97182.53;5055084;28;19933;-83
2023/03/24 12:35:21;;;;;;;;;;;;;;;35.97;20.28;97184.88;5054538;28;19931;-85
2023/03/24 12:37:53;;;;;;;;;;;;;;;36.10;19.98;97177.72;5046158;28;20377;-85
2023/03/24 12:40:45;;;;;;;;;;;;;;;35.74;18.71;97172.13;5055281;28;20059;-84
2023/03/24 12:43:34;;;;;;;;;;;;;;;35.56;20.83;97174.91;5056394;28;20300;-84
2023/03/24 12:46:14;;;;;;;;;;;;;;;35.76;19.92;97174.44;5029929;28;19929;-83
2023/03/24 12:48:48;;;;;;;;;;;;;;;35.59;18.58;97173.84;5045355;28;20004;-84
2023/03/24 12:51:31;;;;;;;;;;;;;;;35.77;19.16;97168.19;5055326;28;20441;-83
2023/03/24 12:54:05;;;;;;;;;;;;;;;35.68;19.90;97177.13;5055354;28;20436;-83
2023/03/24 12:56:38;;;;;;;;;;;;;;;35.85;20.10;97166.28;5055067;28;19947;-84
2023/03/24 12:59:17;;;;;;;;;;;;;;;35.85;18.97;97163.41;5053132;28;20393;-83
2023/03/24 13:01:51;;;;;;;;;;;;;;;35.97;18.20;97162.00;5056077;28;20273;-83
2023/03/24 13:04:17;;;;;;;;;;;;;;;35.70;18.95;97163.09;5049942;28;20003;-83